createdAt,value
2022-08-05T00:00:54.918Z,1351.43
2022-08-05T00:03:22.748Z,1349.43
2022-08-05T00:06:04.737Z,1317.80
2022-08-05T00:08:36.108Z,1329.87
2022-08-05T00:11:23.911Z,1317.23
2022-08-05T00:13:58.430Z,1351.67
2022-08-05T00:16:36.108Z,1332.73
2022-08-05T00:19:14.184Z,1322.57
2022-08-05T00:21:42.658Z,1346.50
2022-08-05T00:24:16.008Z,1312.37
2022-08-05T00:26:50.803Z,1342.80
2022-08-05T00:29:22.702Z,1332.03
2022-08-05T00:32:12.742Z,1242.30
2022-08-05T00:34:54.081Z,1310.07
2022-08-05T00:37:50.384Z,1329.20
2022-08-05T00:40:17.948Z,1327.43
2022-08-05T00:42:57.850Z,1330.83
2022-08-05T00:45:38.242Z,1310.10
2022-08-05T00:48:10.972Z,1315.30
2022-08-05T00:50:41.286Z,1341.63
2022-08-05T00:53:10.082Z,1288.97
2022-08-05T00:55:57.917Z,1309.77
2022-08-05T00:58:27.563Z,1334.63
2022-08-05T01:00:55.877Z,1291.67
2022-08-05T01:03:24.256Z,1288.43
2022-08-05T01:05:58.924Z,1267.77
2022-08-05T01:08:41.929Z,1295.10
2022-08-05T01:11:14.175Z,1264.73
2022-08-05T01:13:59.729Z,1302.77
2022-08-05T01:16:33.268Z,1277.53
2022-08-05T01:19:07.859Z,1292.73
2022-08-05T01:21:51.213Z,1302.20
2022-08-05T01:24:32.426Z,1280.73
2022-08-05T01:27:17.778Z,1247.20
2022-08-05T01:29:51.789Z,1291.23
2022-08-05T01:32:23.950Z,1284.93
2022-08-05T01:34:59.789Z,1298.73
2022-08-05T01:37:44.593Z,1269.03
2022-08-05T01:40:13.426Z,1241.53
2022-08-05T01:42:47.436Z,1207.37
2022-08-05T01:45:17.763Z,1219.30
2022-08-05T01:47:48.512Z,1245.77
2022-08-05T01:50:28.728Z,1239.40
2022-08-05T01:53:02.013Z,1281.17
2022-08-05T01:55:32.481Z,1276.17
2022-08-05T01:58:10.380Z,1248.10
2022-08-05T02:00:55.203Z,1250.60
2022-08-05T02:03:31.856Z,1259.10
2022-08-05T02:06:33.328Z,1248.33
2022-08-05T02:08:58.204Z,1242.37
2022-08-05T02:11:33.313Z,1222.03
2022-08-05T02:14:05.060Z,1243.00
2022-08-05T02:16:40.397Z,1216.43
2022-08-05T02:19:13.914Z,1232.30
2022-08-05T02:21:46.897Z,1242.93
2022-08-05T02:24:23.114Z,1242.23
2022-08-05T02:26:54.851Z,1292.70
2022-08-05T02:29:59.053Z,1273.27
2022-08-05T02:32:23.793Z,1278.57
2022-08-05T02:34:54.580Z,1277.70
2022-08-05T02:37:23.784Z,1261.60
2022-08-05T02:39:53.435Z,1254.63
2022-08-05T02:42:25.824Z,1233.90
2022-08-05T02:44:56.450Z,1224.90
2022-08-05T02:47:58.337Z,1298.43
2022-08-05T02:50:18.139Z,1271.63
2022-08-05T02:52:47.024Z,1288.60
2022-08-05T02:55:17.560Z,1299.63
2022-08-05T02:58:09.654Z,1275.13
2022-08-05T03:00:40.525Z,1272.33
2022-08-05T03:03:16.601Z,1229.00
2022-08-05T03:06:53.999Z,1214.97
2022-08-05T03:08:33.711Z,1087.10
2022-08-05T03:11:54.309Z,983.20
2022-08-05T03:14:02.682Z,948.67
2022-08-05T03:16:31.544Z,982.43
2022-08-05T03:19:12.520Z,990.00
2022-08-05T03:21:49.309Z,1070.60
2022-08-05T03:24:18.530Z,1247.67
2022-08-05T03:26:57.685Z,1041.77
2022-08-05T03:29:45.256Z,980.60
2022-08-05T03:32:14.427Z,1023.37
2022-08-05T03:34:50.785Z,1116.83
2022-08-05T03:37:20.613Z,1145.07
2022-08-05T03:39:59.395Z,1167.57
2022-08-05T03:42:32.106Z,1179.20
2022-08-05T03:45:01.503Z,1182.10
2022-08-05T03:47:35.424Z,1188.33
2022-08-05T03:50:06.807Z,1187.90
2022-08-05T03:55:00.278Z,1214.87
2022-08-05T03:56:09.574Z,1280.43
2022-08-05T03:58:28.986Z,1287.67
2022-08-05T04:00:58.276Z,1186.53
2022-08-05T04:03:35.904Z,1238.17
2022-08-05T04:06:08.726Z,1185.30
2022-08-05T04:08:37.130Z,1199.33
2022-08-05T04:11:08.884Z,1224.87
2022-08-05T04:13:50.406Z,1206.07
2022-08-05T04:16:24.299Z,1231.67
2022-08-05T04:19:00.335Z,1199.20
2022-08-05T04:22:08.824Z,1229.80
2022-08-05T04:24:19.231Z,1239.10
2022-08-05T04:26:50.768Z,1246.57
2022-08-05T04:29:19.058Z,1256.63
2022-08-05T04:31:48.462Z,1240.87
2022-08-05T04:34:32.486Z,1256.27
2022-08-05T04:37:03.448Z,1280.67
2022-08-05T04:39:31.420Z,1258.03
2022-08-05T04:42:00.099Z,1201.37
2022-08-05T04:44:30.721Z,1204.57
2022-08-05T04:46:59.243Z,1212.50
2022-08-05T04:49:39.225Z,1234.03
2022-08-05T04:52:17.010Z,1238.03
2022-08-05T04:54:46.508Z,1237.07
2022-08-05T04:57:14.484Z,1237.67
2022-08-05T04:59:42.346Z,1261.83
2022-08-05T05:02:37.630Z,1281.67
2022-08-05T05:05:26.344Z,1286.77
2022-08-05T05:07:56.495Z,1264.07
2022-08-05T05:10:30.097Z,1296.30
2022-08-05T05:12:58.104Z,1306.17
2022-08-05T05:15:57.832Z,1294.50
2022-08-05T05:18:28.480Z,1300.47
2022-08-05T05:21:03.762Z,1310.90
2022-08-05T05:24:01.977Z,1310.83
2022-08-05T05:26:28.786Z,1322.33
2022-08-05T05:29:00.989Z,1327.33
2022-08-05T05:31:35.877Z,1303.13
2022-08-05T05:34:01.989Z,1318.37
2022-08-05T05:36:30.267Z,1279.80
2022-08-05T05:38:59.620Z,1279.40
2022-08-05T05:41:40.897Z,1271.57
2022-08-05T05:44:35.497Z,1271.13
2022-08-05T05:46:58.389Z,1271.33
2022-08-05T05:49:33.110Z,1295.67
2022-08-05T05:52:01.109Z,1302.83
2022-08-05T05:54:50.078Z,1279.23
2022-08-05T05:57:19.514Z,1308.40
2022-08-05T05:59:49.008Z,1266.60
2022-08-05T06:02:17.340Z,1294.73
2022-08-05T06:05:01.371Z,1271.03
2022-08-05T06:07:41.211Z,1236.40
2022-08-05T06:10:11.948Z,1221.47
2022-08-05T06:12:42.265Z,1258.37
2022-08-05T06:15:16.541Z,1257.87
2022-08-05T06:17:54.250Z,1271.67
2022-08-05T06:20:23.041Z,1238.17
2022-08-05T06:22:50.987Z,1236.97
2022-08-05T06:25:59.695Z,1219.30
2022-08-05T06:28:11.106Z,1206.30
2022-08-05T06:30:46.888Z,1213.27
2022-08-05T06:33:19.013Z,1197.90
2022-08-05T06:36:08.187Z,1106.80
2022-08-05T06:38:35.793Z,1050.13
2022-08-05T06:41:09.303Z,1099.50
2022-08-05T06:43:51.640Z,1138.10
2022-08-05T06:46:30.008Z,1206.73
2022-08-05T06:48:59.213Z,1241.30
2022-08-05T06:51:30.719Z,1280.60
2022-08-05T06:53:59.584Z,1250.80
2022-08-05T06:56:29.753Z,1224.47
2022-08-05T06:58:57.874Z,1264.10
2022-08-05T07:01:27.653Z,1257.33
2022-08-05T07:04:01.320Z,1256.50
2022-08-05T07:06:30.504Z,1251.27
2022-08-05T07:09:00.294Z,1251.13
2022-08-05T07:11:37.173Z,1244.73
2022-08-05T07:14:30.262Z,1211.90
2022-08-05T07:17:59.043Z,1234.47
2022-08-05T07:22:42.061Z,1237.53
2022-08-05T07:25:55.463Z,1224.83
2022-08-05T07:28:05.882Z,1242.43
2022-08-05T07:30:39.194Z,1200.10
2022-08-05T07:33:10.394Z,1246.47
2022-08-05T07:36:04.265Z,1248.83
2022-08-05T07:38:33.335Z,1209.57
2022-08-05T07:42:08.031Z,1204.87
2022-08-05T07:43:56.884Z,1143.37
2022-08-05T07:46:26.825Z,1111.83
2022-08-05T07:49:01.908Z,1068.83
2022-08-05T07:51:48.555Z,1096.73
2022-08-05T07:54:23.158Z,1115.77
2022-08-05T07:57:13.641Z,1137.63
2022-08-05T07:59:43.764Z,1123.87
2022-08-05T08:02:16.920Z,1144.33
2022-08-05T08:04:47.224Z,1176.57
2022-08-05T08:07:15.621Z,1219.63
2022-08-05T08:09:43.989Z,1372.82
2022-08-05T08:12:35.103Z,1249.33
2022-08-05T08:15:03.436Z,1236.37
2022-08-05T08:17:32.643Z,1265.80
2022-08-05T08:20:21.106Z,1230.93
2022-08-05T08:22:52.760Z,1232.50
2022-08-05T08:25:27.082Z,1210.83
2022-08-05T08:28:18.062Z,1260.33
2022-08-05T08:30:49.865Z,1250.17
2022-08-05T08:33:19.128Z,1274.87
2022-08-05T08:35:53.802Z,1269.40
2022-08-05T08:38:37.860Z,1193.00
2022-08-05T08:41:08.355Z,1205.97
2022-08-05T08:45:23.383Z,1200.63
2022-08-05T08:46:28.632Z,1195.40
2022-08-05T08:49:04.175Z,1273.50
2022-08-05T08:52:02.850Z,1203.80
2022-08-05T08:54:27.396Z,1220.43
2022-08-05T08:56:56.640Z,1201.77
2022-08-05T08:59:27.414Z,1206.57
2022-08-05T09:02:08.870Z,1184.30
2022-08-05T09:04:58.543Z,1205.83
2022-08-05T09:07:29.209Z,1198.13
2022-08-05T09:10:08.254Z,1222.23
2022-08-05T09:12:36.599Z,1236.83
2022-08-05T09:15:06.539Z,1237.83
2022-08-05T09:17:43.057Z,1232.23
2022-08-05T09:20:36.475Z,1246.87
2022-08-05T09:23:09.608Z,1253.93
2022-08-05T09:26:01.098Z,1258.20
2022-08-05T09:28:32.629Z,1288.50
2022-08-05T09:31:23.417Z,1281.77
2022-08-05T09:33:59.163Z,1280.00
2022-08-05T09:36:53.901Z,1289.60
2022-08-05T09:39:41.570Z,1284.33
2022-08-05T09:42:17.485Z,1277.83
2022-08-05T09:44:56.805Z,1301.47
2022-08-05T09:47:28.626Z,1307.60
2022-08-05T09:50:08.322Z,1291.70
2022-08-05T09:52:44.805Z,1298.93
2022-08-05T09:55:56.562Z,1278.37
2022-08-05T09:58:11.833Z,1288.67
2022-08-05T10:00:39.743Z,1296.53
2022-08-05T10:03:11.719Z,1315.93
2022-08-05T10:05:42.122Z,1287.07
2022-08-05T10:08:35.740Z,1310.07
2022-08-05T10:10:57.984Z,1299.27
2022-08-05T10:13:47.413Z,1290.00
2022-08-05T10:16:37.765Z,1305.27
2022-08-05T10:19:10.268Z,1324.67
2022-08-05T10:21:41.317Z,1293.17
2022-08-05T10:24:12.947Z,1309.97
2022-08-05T10:26:51.441Z,1303.37
2022-08-05T10:29:23.588Z,1300.30
2022-08-05T10:33:02.202Z,1311.47
2022-08-05T10:35:00.974Z,1323.67
2022-08-05T10:37:40.167Z,1330.27
2022-08-05T10:40:21.574Z,1306.10
2022-08-05T10:43:15.376Z,1287.33
2022-08-05T10:45:43.278Z,1263.10
2022-08-05T10:48:35.068Z,1257.33
2022-08-05T10:51:22.191Z,1300.10
2022-08-05T10:53:58.336Z,1230.53
2022-08-05T10:56:30.929Z,1217.47
2022-08-05T11:00:01.184Z,1239.57
2022-08-05T11:02:08.122Z,1251.93
2022-08-05T11:04:46.065Z,1260.13
2022-08-05T11:07:16.419Z,1282.83
2022-08-05T11:09:47.297Z,1275.07
2022-08-05T11:12:45.538Z,1287.67
2022-08-05T11:15:21.546Z,1305.97
2022-08-05T11:17:59.716Z,1318.27
2022-08-05T11:20:41.870Z,1312.67
2022-08-05T11:24:05.718Z,1315.77
2022-08-05T11:26:28.584Z,1318.70
2022-08-05T11:29:11.917Z,1280.97
2022-08-05T11:31:56.561Z,1282.67
2022-08-05T11:34:38.394Z,1276.00
2022-08-05T11:38:28.839Z,1274.80
2022-08-05T11:40:00.733Z,1272.73
2022-08-05T11:42:40.530Z,1274.23
2022-08-05T11:45:14.314Z,1273.37
2022-08-05T11:47:55.215Z,1303.30
2022-08-05T11:50:23.422Z,1289.57
2022-08-05T11:52:57.651Z,1305.87
2022-08-05T11:55:32.320Z,1306.00
2022-08-05T11:58:10.969Z,1305.33
2022-08-05T12:00:41.131Z,1317.17
2022-08-05T12:03:23.765Z,1316.60
2022-08-05T12:06:00.889Z,1322.63
2022-08-05T12:08:32.759Z,1344.57
2022-08-05T12:11:05.734Z,1320.23
2022-08-05T12:13:48.499Z,1359.87
2022-08-05T12:16:20.310Z,1358.57
2022-08-05T12:18:56.101Z,1334.17
2022-08-05T12:21:29.771Z,1327.50
2022-08-05T12:24:05.174Z,1343.80
2022-08-05T12:26:34.465Z,1261.10
2022-08-05T12:29:05.035Z,1214.43
2022-08-05T12:31:41.522Z,1298.60
2022-08-05T12:34:20.478Z,1278.80
2022-08-05T12:36:49.938Z,1266.20
2022-08-05T12:39:18.089Z,1317.90
2022-08-05T12:41:46.517Z,1433.47
2022-08-05T12:44:32.641Z,1440.67
2022-08-05T12:47:02.876Z,1472.30
2022-08-05T12:50:03.970Z,1495.73
2022-08-05T12:52:37.727Z,1495.40
2022-08-05T12:55:18.037Z,1501.60
2022-08-05T12:58:39.161Z,1509.37
2022-08-05T13:01:59.712Z,1473.00
2022-08-05T13:03:32.539Z,1495.03
2022-08-05T13:06:00.822Z,1468.10
2022-08-05T13:08:32.281Z,1448.83
2022-08-05T13:11:04.511Z,1429.77
2022-08-05T13:14:06.008Z,1424.90
2022-08-05T13:16:25.151Z,1414.67
2022-08-05T13:18:58.351Z,1415.40
2022-08-05T13:21:28.506Z,1394.07
2022-08-05T13:24:08.730Z,1393.70
2022-08-05T13:26:37.061Z,1405.63
2022-08-05T13:29:05.564Z,1407.43
2022-08-05T13:32:03.826Z,1379.60
2022-08-05T13:34:25.845Z,1384.07
2022-08-05T13:36:54.435Z,1369.00
2022-08-05T13:40:13.819Z,1393.20
2022-08-05T13:42:14.576Z,1437.87
2022-08-05T13:44:45.665Z,1449.77
2022-08-05T13:47:36.168Z,1473.93
2022-08-05T13:50:11.284Z,1408.03
2022-08-05T13:52:43.118Z,1444.77
2022-08-05T13:55:11.994Z,1407.10
2022-08-05T13:57:59.815Z,1424.83
2022-08-05T14:00:28.558Z,1361.63
2022-08-05T14:03:01.006Z,1357.40
2022-08-05T14:05:48.269Z,1366.77
2022-08-05T14:08:21.017Z,1356.03
2022-08-05T14:11:03.329Z,1307.60
2022-08-05T14:13:43.927Z,1335.47
2022-08-05T14:16:17.013Z,1356.90
2022-08-05T14:18:48.451Z,1349.07
2022-08-05T14:22:08.511Z,1399.60
2022-08-05T14:24:05.853Z,1380.80
2022-08-05T14:26:38.778Z,1363.30
2022-08-05T14:29:15.717Z,1390.13
2022-08-05T14:32:02.858Z,1416.10
2022-08-05T14:34:35.681Z,1377.87
2022-08-05T14:37:04.176Z,1379.57
2022-08-05T14:39:50.135Z,1365.77
2022-08-05T14:42:21.595Z,1374.63
2022-08-05T14:44:50.115Z,1356.30
2022-08-05T14:47:58.380Z,1374.50
2022-08-05T14:50:18.468Z,1363.17
2022-08-05T14:52:53.505Z,1376.93
2022-08-05T14:55:25.805Z,1354.57
2022-08-05T14:57:57.001Z,1369.67
2022-08-05T15:00:27.995Z,1372.70
2022-08-05T15:02:58.115Z,1313.63
2022-08-05T15:05:29.755Z,1362.40
2022-08-05T15:08:11.518Z,1341.80
2022-08-05T15:10:46.194Z,1368.40
2022-08-05T15:13:14.793Z,1379.60
2022-08-05T15:15:55.165Z,1314.57
2022-08-05T15:18:25.003Z,1350.40
2022-08-05T15:20:54.244Z,1309.33
2022-08-05T15:23:22.312Z,1351.60
2022-08-05T15:25:52.291Z,1318.17
2022-08-05T15:28:26.977Z,1294.47
2022-08-05T15:30:55.994Z,1278.27
2022-08-05T15:34:04.175Z,1333.17
2022-08-05T15:36:17.707Z,1326.63
2022-08-05T15:40:41.028Z,1290.47
2022-08-05T15:41:58.251Z,1303.27
2022-08-05T15:44:28.027Z,1282.27
2022-08-05T15:46:59.260Z,1298.63
2022-08-05T15:49:53.571Z,1295.00
2022-08-05T15:52:51.812Z,1285.20
2022-08-05T15:55:05.182Z,1286.37
2022-08-05T15:57:35.916Z,1266.67
2022-08-05T16:00:05.470Z,1290.67
2022-08-05T16:02:33.525Z,1275.10
2022-08-05T16:05:01.674Z,1301.30
2022-08-05T16:07:30.945Z,1231.70
2022-08-05T16:09:58.814Z,1254.20
2022-08-05T16:12:26.907Z,1216.97
2022-08-05T16:14:54.941Z,1170.20
2022-08-05T16:17:23.075Z,1196.87
2022-08-05T16:20:03.423Z,1207.10
2022-08-05T16:22:35.159Z,1113.87
2022-08-05T16:25:05.433Z,1159.53
2022-08-05T16:27:59.677Z,1277.73
2022-08-05T16:30:28.930Z,1205.80
2022-08-05T16:32:57.302Z,1257.37
2022-08-05T16:35:28.478Z,1250.57
2022-08-05T16:38:18.644Z,1219.97
2022-08-05T16:40:54.980Z,1252.87
2022-08-05T16:43:30.226Z,1233.83
2022-08-05T16:46:06.411Z,1216.07
2022-08-05T16:48:38.911Z,1239.87
2022-08-05T16:51:10.168Z,1227.30
2022-08-05T16:54:05.179Z,1230.37
2022-08-05T16:56:30.075Z,1225.07
2022-08-05T16:58:58.322Z,1217.63
2022-08-05T17:01:26.874Z,1246.27
2022-08-05T17:03:54.832Z,1252.30
2022-08-05T17:06:24.608Z,1228.80
2022-08-05T17:08:54.587Z,1254.27
2022-08-05T17:11:25.503Z,1231.77
2022-08-05T17:14:00.496Z,1254.97
2022-08-05T17:16:36.479Z,1219.70
2022-08-05T17:19:07.620Z,1232.70
2022-08-05T17:21:37.805Z,1242.50
2022-08-05T17:24:29.195Z,1187.80
2022-08-05T17:26:58.867Z,1235.37
2022-08-05T17:29:33.749Z,1217.37
2022-08-05T17:32:11.387Z,1161.83
2022-08-05T17:34:44.527Z,1131.27
2022-08-05T17:37:39.363Z,1190.63
2022-08-05T17:40:03.859Z,1212.17
2022-08-05T17:42:33.059Z,1206.03
2022-08-05T17:45:17.717Z,1205.27
2022-08-05T17:47:52.893Z,1175.30
2022-08-05T17:50:28.046Z,1193.97
2022-08-05T17:52:59.737Z,1160.30
2022-08-05T17:55:37.976Z,1196.77
2022-08-05T17:58:11.139Z,1197.23
2022-08-05T18:00:45.050Z,1184.03
2022-08-05T18:03:33.233Z,1182.30
2022-08-05T18:06:12.034Z,1186.43
2022-08-05T18:08:45.746Z,1191.23
2022-08-05T18:11:24.278Z,1166.40
2022-08-05T18:14:00.833Z,1149.30
2022-08-05T18:16:31.719Z,1155.97
2022-08-05T18:18:59.598Z,1117.17
2022-08-05T18:21:28.036Z,1101.03
2022-08-05T18:23:56.803Z,1194.20
2022-08-05T18:26:29.500Z,1190.27
2022-08-05T18:29:00.472Z,1181.23
2022-08-05T18:31:33.755Z,1156.33
2022-08-05T18:34:05.997Z,1157.37
2022-08-05T18:36:36.332Z,1161.20
2022-08-05T18:39:09.624Z,1142.37
2022-08-05T18:41:56.031Z,1172.17
2022-08-05T18:44:35.110Z,1125.47
2022-08-05T18:47:15.427Z,1162.53
2022-08-05T18:50:00.877Z,1146.40
2022-08-05T18:52:41.648Z,1157.47
2022-08-05T18:55:21.499Z,1136.60
2022-08-05T18:57:53.506Z,1143.23
2022-08-05T19:00:28.523Z,1140.53
2022-08-05T19:02:57.669Z,1113.47
2022-08-05T19:06:13.612Z,1118.80
2022-08-05T19:08:21.624Z,1138.23
2022-08-05T19:10:49.785Z,1134.87
2022-08-05T19:13:19.868Z,1149.70
2022-08-05T19:15:58.714Z,1140.40
2022-08-05T19:18:32.435Z,1099.17
2022-08-05T19:21:00.508Z,1108.33
2022-08-05T19:24:07.795Z,1141.50
2022-08-05T19:26:19.524Z,1139.43
2022-08-05T19:28:48.775Z,1104.27
2022-08-05T19:31:18.024Z,1009.60
2022-08-05T19:33:48.566Z,1034.67
2022-08-05T19:36:25.801Z,997.07
2022-08-05T19:38:54.728Z,999.00
2022-08-05T19:41:58.163Z,1016.10
2022-08-05T19:44:13.038Z,1011.83
2022-08-05T19:46:43.735Z,1020.03
2022-08-05T19:49:12.435Z,1010.00
2022-08-05T19:52:09.101Z,1017.00
2022-08-05T19:54:34.314Z,1013.33
2022-08-05T19:57:06.488Z,998.53
2022-08-05T19:59:55.451Z,978.20
2022-08-05T20:02:28.200Z,1007.00
2022-08-05T20:04:58.923Z,997.73
2022-08-05T20:07:47.469Z,997.63
2022-08-05T20:10:15.694Z,1000.90
2022-08-05T20:12:45.921Z,992.33
2022-08-05T20:15:48.620Z,992.10
2022-08-05T20:18:10.147Z,968.50
2022-08-05T20:20:55.223Z,1083.43
2022-08-05T20:23:23.726Z,1043.90
2022-08-05T20:26:09.016Z,1105.27
2022-08-05T20:28:45.193Z,1084.57
2022-08-05T20:31:16.475Z,1086.43
2022-08-05T20:33:44.968Z,1058.07
2022-08-05T20:36:14.275Z,1103.60
2022-08-05T20:38:54.390Z,1124.13
2022-08-05T20:41:44.526Z,1150.00
2022-08-05T20:44:18.520Z,1137.07
2022-08-05T20:46:58.696Z,1134.30
2022-08-05T20:49:26.605Z,1144.70
2022-08-05T20:51:54.760Z,1061.73
2022-08-05T20:54:22.734Z,1010.53
2022-08-05T20:56:52.637Z,1041.90
2022-08-05T20:59:26.952Z,1118.67
2022-08-05T21:02:10.178Z,1119.23
2022-08-05T21:04:39.060Z,1057.47
2022-08-05T21:07:08.914Z,1121.53
2022-08-05T21:09:37.107Z,1119.27
2022-08-05T21:12:19.423Z,1087.57
2022-08-05T21:14:47.596Z,1141.80
2022-08-05T21:17:17.024Z,1142.93
2022-08-05T21:19:47.912Z,1134.73
2022-08-05T21:22:21.775Z,1158.23
2022-08-05T21:24:51.876Z,1111.77
2022-08-05T21:27:20.691Z,1080.47
2022-08-05T21:29:55.289Z,1104.73
2022-08-05T21:32:27.057Z,1090.97
2022-08-05T21:35:06.748Z,1011.80
2022-08-05T21:37:41.187Z,1021.33
2022-08-05T21:40:13.119Z,994.40
2022-08-05T21:42:44.467Z,1088.57
2022-08-05T21:45:25.152Z,1083.43
2022-08-05T21:48:06.644Z,1083.07
2022-08-05T21:50:36.624Z,1064.47
2022-08-05T21:53:17.405Z,1100.57
2022-08-05T21:56:01.077Z,1089.03
2022-08-05T21:58:33.838Z,1073.40
2022-08-05T22:01:04.114Z,1090.30
2022-08-05T22:03:51.735Z,1062.90
2022-08-05T22:06:35.078Z,1083.27
2022-08-05T22:09:13.576Z,1101.10
2022-08-05T22:11:46.798Z,1087.07
2022-08-05T22:14:33.349Z,1101.37
2022-08-05T22:17:06.820Z,1116.73
2022-08-05T22:20:00.724Z,1104.37
2022-08-05T22:22:27.615Z,1117.53
2022-08-05T22:25:21.190Z,1124.40
2022-08-05T22:28:04.943Z,1104.37
2022-08-05T22:30:56.154Z,1126.03
2022-08-05T22:33:56.594Z,1122.77
2022-08-05T22:36:15.731Z,1126.03
2022-08-05T22:38:48.156Z,1124.23
2022-08-05T22:42:04.743Z,1131.03
2022-08-05T22:44:05.709Z,1133.67
2022-08-05T22:46:33.603Z,1116.70
2022-08-05T22:49:07.850Z,1123.03
2022-08-05T22:52:05.806Z,1110.20
2022-08-05T22:54:29.693Z,1099.67
2022-08-05T22:56:57.530Z,1110.60
2022-08-05T22:59:46.483Z,1136.47
2022-08-05T23:02:13.784Z,1124.03
2022-08-05T23:04:51.391Z,1119.47
2022-08-05T23:07:22.503Z,1098.43
2022-08-05T23:09:53.392Z,1125.63
2022-08-05T23:12:32.825Z,1054.63
2022-08-05T23:15:03.558Z,1055.70
2022-08-05T23:17:34.555Z,1050.17
2022-08-05T23:20:16.581Z,1083.80
2022-08-05T23:22:48.387Z,1077.43
2022-08-05T23:25:51.777Z,1082.90
2022-08-05T23:28:06.732Z,1081.57
2022-08-05T23:30:40.526Z,1094.73
2022-08-05T23:33:16.046Z,1088.93
2022-08-05T23:35:50.714Z,1106.43
2022-08-05T23:38:20.013Z,1105.13
2022-08-05T23:40:49.734Z,1099.27
2022-08-05T23:43:25.604Z,1102.13
2022-08-05T23:46:20.607Z,1107.13
2022-08-05T23:49:00.679Z,1098.60
2022-08-05T23:51:54.125Z,1096.03
2022-08-05T23:54:26.459Z,1112.17
2022-08-05T23:57:04.122Z,1082.97
